sensor_id;sensor_type;location;lat;lon;timestamp;pressure;altitude;pressure_sealevel;temperature;humidity
74716;BME280;63234;37.558;127.058;2024-01-15T00:01:42;99361.25;;;-3.73;85.92
74716;BME280;63234;37.558;127.058;2024-01-15T00:04:07;99362.56;;;-3.69;86.15
74716;BME280;63234;37.558;127.058;2024-01-15T00:06:33;99359.53;;;-3.64;85.91
74716;BME280;63234;37.558;127.058;2024-01-15T00:08:58;99364.06;;;-3.48;85.70
74716;BME280;63234;37.558;127.058;2024-01-15T00:11:24;99348.16;;;-3.45;84.85
74716;BME280;63234;37.558;127.058;2024-01-15T00:13:49;99348.78;;;-3.51;85.36
74716;BME280;63234;37.558;127.058;2024-01-15T00:16:14;99347.94;;;-3.52;85.23
74716;BME280;63234;37.558;127.058;2024-01-15T00:18:40;99351.22;;;-3.50;85.15
74716;BME280;63234;37.558;127.058;2024-01-15T00:21:05;99353.00;;;-3.50;85.81
74716;BME280;63234;37.558;127.058;2024-01-15T00:23:30;99353.22;;;-3.43;85.82
74716;BME280;63234;37.558;127.058;2024-01-15T00:25:56;99344.75;;;-3.46;86.03
74716;BME280;63234;37.558;127.058;2024-01-15T00:28:21;99348.38;;;-3.38;85.84
74716;BME280;63234;37.558;127.058;2024-01-15T00:30:46;99341.94;;;-3.34;85.49
74716;BME280;63234;37.558;127.058;2024-01-15T00:33:12;99347.56;;;-3.39;85.65
74716;BME280;63234;37.558;127.058;2024-01-15T00:35:38;99354.84;;;-3.42;85.55
74716;BME280;63234;37.558;127.058;2024-01-15T00:38:03;99342.00;;;-3.44;85.65
74716;BME280;63234;37.558;127.058;2024-01-15T00:40:28;99340.94;;;-3.33;85.71
74716;BME280;63234;37.558;127.058;2024-01-15T00:42:54;99340.94;;;-3.33;85.19
74716;BME280;63234;37.558;127.058;2024-01-15T00:45:19;99341.34;;;-3.46;85.85
74716;BME280;63234;37.558;127.058;2024-01-15T00:47:44;99346.88;;;-3.41;86.04
74716;BME280;63234;37.558;127.058;2024-01-15T00:50:10;99342.22;;;-3.37;85.35
74716;BME280;63234;37.558;127.058;2024-01-15T00:52:35;99350.88;;;-3.29;85.26
74716;BME280;63234;37.558;127.058;2024-01-15T00:55:00;99338.50;;;-3.35;85.40
74716;BME280;63234;37.558;127.058;2024-01-15T00:57:26;99338.72;;;-3.28;85.42
74716;BME280;63234;37.558;127.058;2024-01-15T00:59:51;99337.47;;;-3.42;85.56
74716;BME280;63234;37.558;127.058;2024-01-15T01:02:16;99337.16;;;-3.39;85.51
74716;BME280;63234;37.558;127.058;2024-01-15T01:04:42;99340.22;;;-3.43;85.70
74716;BME280;63234;37.558;127.058;2024-01-15T01:07:07;99339.78;;;-3.57;86.32
74716;BME280;63234;37.558;127.058;2024-01-15T01:09:33;99330.19;;;-3.56;86.64
74716;BME280;63234;37.558;127.058;2024-01-15T01:11:58;99331.19;;;-3.57;86.26
74716;BME280;63234;37.558;127.058;2024-01-15T01:14:23;99336.06;;;-3.54;86.34
74716;BME280;63234;37.558;127.058;2024-01-15T01:16:49;99336.44;;;-3.49;86.54
74716;BME280;63234;37.558;127.058;2024-01-15T01:19:14;99332.06;;;-3.49;86.53
74716;BME280;63234;37.558;127.058;2024-01-15T01:21:40;99330.03;;;-3.37;85.68
74716;BME280;63234;37.558;127.058;2024-01-15T01:24:05;99327.75;;;-3.40;85.71
74716;BME280;63234;37.558;127.058;2024-01-15T01:26:31;99330.56;;;-3.33;85.42
74716;BME280;63234;37.558;127.058;2024-01-15T01:28:56;99334.13;;;-3.34;85.66
74716;BME280;63234;37.558;127.058;2024-01-15T01:31:23;99324.69;;;-3.35;85.64
74716;BME280;63234;37.558;127.058;2024-01-15T01:33:48;99325.59;;;-3.44;85.31
74716;BME280;63234;37.558;127.058;2024-01-15T01:36:14;99331.47;;;-3.42;85.69
74716;BME280;63234;37.558;127.058;2024-01-15T01:38:40;99333.97;;;-3.51;86.61
74716;BME280;63234;37.558;127.058;2024-01-15T01:41:05;99323.56;;;-3.33;85.89
74716;BME280;63234;37.558;127.058;2024-01-15T01:43:31;99331.56;;;-3.26;85.29
74716;BME280;63234;37.558;127.058;2024-01-15T01:45:57;99329.88;;;-3.35;85.91
74716;BME280;63234;37.558;127.058;2024-01-15T01:48:24;99331.22;;;-3.31;85.61
74716;BME280;63234;37.558;127.058;2024-01-15T01:50:52;99332.94;;;-3.40;85.79
74716;BME280;63234;37.558;127.058;2024-01-15T01:53:18;99324.44;;;-3.24;85.90
74716;BME280;63234;37.558;127.058;2024-01-15T01:55:43;99330.00;;;-3.19;85.34
74716;BME280;63234;37.558;127.058;2024-01-15T01:58:09;99326.22;;;-3.25;85.58
74716;BME280;63234;37.558;127.058;2024-01-15T02:00:35;99320.56;;;-3.20;85.66
74716;BME280;63234;37.558;127.058;2024-01-15T02:03:01;99319.19;;;-3.32;85.96
74716;BME280;63234;37.558;127.058;2024-01-15T02:05:28;99314.75;;;-3.40;86.61
74716;BME280;63234;37.558;127.058;2024-01-15T02:07:55;99321.66;;;-3.49;87.07
74716;BME280;63234;37.558;127.058;2024-01-15T02:10:20;99309.66;;;-3.50;87.46
74716;BME280;63234;37.558;127.058;2024-01-15T02:12:46;99305.31;;;-3.41;87.30
74716;BME280;63234;37.558;127.058;2024-01-15T02:15:13;99307.47;;;-3.36;87.59
74716;BME280;63234;37.558;127.058;2024-01-15T02:18:04;99297.72;;;-3.34;87.19
74716;BME280;63234;37.558;127.058;2024-01-15T02:20:30;99292.53;;;-3.34;88.03
74716;BME280;63234;37.558;127.058;2024-01-15T02:23:21;99296.59;;;-3.32;87.85
74716;BME280;63234;37.558;127.058;2024-01-15T02:25:47;99288.78;;;-3.32;87.98
74716;BME280;63234;37.558;127.058;2024-01-15T02:28:15;99294.16;;;-3.33;87.80
74716;BME280;63234;37.558;127.058;2024-01-15T02:30:42;99289.97;;;-3.26;87.77
74716;BME280;63234;37.558;127.058;2024-01-15T02:33:08;99300.66;;;-3.29;87.62
74716;BME280;63234;37.558;127.058;2024-01-15T02:35:34;99290.94;;;-3.27;87.29
74716;BME280;63234;37.558;127.058;2024-01-15T02:38:02;99290.13;;;-3.28;87.40
74716;BME280;63234;37.558;127.058;2024-01-15T02:40:27;99290.13;;;-3.28;87.46
74716;BME280;63234;37.558;127.058;2024-01-15T02:42:53;99290.94;;;-3.27;87.52
74716;BME280;63234;37.558;127.058;2024-01-15T02:45:18;99286.41;;;-3.25;87.57
74716;BME280;63234;37.558;127.058;2024-01-15T02:47:43;99285.06;;;-3.29;87.85
74716;BME280;63234;37.558;127.058;2024-01-15T02:50:09;99283.97;;;-3.27;87.83
74716;BME280;63234;37.558;127.058;2024-01-15T02:52:34;99282.84;;;-3.24;87.99
74716;BME280;63234;37.558;127.058;2024-01-15T02:54:59;99275.41;;;-3.19;87.62
74716;BME280;63234;37.558;127.058;2024-01-15T02:57:25;99277.69;;;-3.16;87.57
74716;BME280;63234;37.558;127.058;2024-01-15T02:59:50;99281.09;;;-3.15;87.90
74716;BME280;63234;37.558;127.058;2024-01-15T03:02:15;99276.59;;;-3.05;87.49
74716;BME280;63234;37.558;127.058;2024-01-15T03:04:44;99276.28;;;-3.02;86.98
74716;BME280;63234;37.558;127.058;2024-01-15T03:07:09;99277.94;;;-3.01;87.36
74716;BME280;63234;37.558;127.058;2024-01-15T03:09:35;99270.78;;;-2.99;86.94
74716;BME280;63234;37.558;127.058;2024-01-15T03:12:00;99283.66;;;-2.97;87.10
74716;BME280;63234;37.558;127.058;2024-01-15T03:14:26;99270.47;;;-2.96;87.20
74716;BME280;63234;37.558;127.058;2024-01-15T03:16:52;99268.84;;;-2.97;86.76
74716;BME280;63234;37.558;127.058;2024-01-15T03:19:17;99265.28;;;-2.96;87.29
74716;BME280;63234;37.558;127.058;2024-01-15T03:21:43;99264.81;;;-2.91;87.11
74716;BME280;63234;37.558;127.058;2024-01-15T03:24:08;99269.03;;;-2.90;87.46
74716;BME280;63234;37.558;127.058;2024-01-15T03:26:33;99264.16;;;-2.93;87.59
74716;BME280;63234;37.558;127.058;2024-01-15T03:28:59;99266.09;;;-2.95;87.63
74716;BME280;63234;37.558;127.058;2024-01-15T03:31:24;99267.88;;;-2.96;87.85
74716;BME280;63234;37.558;127.058;2024-01-15T03:33:49;99259.75;;;-2.93;87.55
74716;BME280;63234;37.558;127.058;2024-01-15T03:36:14;99261.09;;;-2.89;87.29
74716;BME280;63234;37.558;127.058;2024-01-15T03:38:43;99257.19;;;-2.85;87.27
74716;BME280;63234;37.558;127.058;2024-01-15T03:41:08;99238.50;;;-2.88;86.96
74716;BME280;63234;37.558;127.058;2024-01-15T03:43:34;99237.38;;;-2.78;86.97
74716;BME280;63234;37.558;127.058;2024-01-15T03:45:59;99234.47;;;-2.74;86.76
74716;BME280;63234;37.558;127.058;2024-01-15T03:48:24;99244.41;;;-2.70;86.64
74716;BME280;63234;37.558;127.058;2024-01-15T03:50:50;99245.91;;;-2.67;86.66
74716;BME280;63234;37.558;127.058;2024-01-15T03:53:15;99242.97;;;-2.64;86.36
74716;BME280;63234;37.558;127.058;2024-01-15T03:55:40;99245.41;;;-2.63;86.35
74716;BME280;63234;37.558;127.058;2024-01-15T03:58:06;99238.09;;;-2.59;86.16
74716;BME280;63234;37.558;127.058;2024-01-15T04:00:31;99234.53;;;-2.58;85.79
74716;BME280;63234;37.558;127.058;2024-01-15T04:02:56;99220.38;;;-2.47;85.32
74716;BME280;63234;37.558;127.058;2024-01-15T04:05:22;99218.59;;;-2.47;85.88
74716;BME280;63234;37.558;127.058;2024-01-15T04:07:47;99225.94;;;-2.42;85.46
74716;BME280;63234;37.558;127.058;2024-01-15T04:10:12;99216.84;;;-2.38;84.95
74716;BME280;63234;37.558;127.058;2024-01-15T04:12:38;99212.44;;;-2.38;84.79
74716;BME280;63234;37.558;127.058;2024-01-15T04:15:03;99213.91;;;-2.35;84.82
74716;BME280;63234;37.558;127.058;2024-01-15T04:17:29;99214.09;;;-2.37;84.81
74716;BME280;63234;37.558;127.058;2024-01-15T04:19:54;99217.16;;;-2.41;84.86
74716;BME280;63234;37.558;127.058;2024-01-15T04:22:20;99221.72;;;-2.43;85.08
74716;BME280;63234;37.558;127.058;2024-01-15T04:24:45;99219.25;;;-2.45;85.06
74716;BME280;63234;37.558;127.058;2024-01-15T04:27:11;99221.06;;;-2.45;84.95
74716;BME280;63234;37.558;127.058;2024-01-15T04:29:39;99214.56;;;-2.49;85.03
74716;BME280;63234;37.558;127.058;2024-01-15T04:32:05;99214.56;;;-2.49;85.40
74716;BME280;63234;37.558;127.058;2024-01-15T04:34:30;99209.34;;;-2.49;84.94
74716;BME280;63234;37.558;127.058;2024-01-15T04:36:55;99199.75;;;-2.49;85.13
74716;BME280;63234;37.558;127.058;2024-01-15T04:39:21;99196.81;;;-2.46;85.02
74716;BME280;63234;37.558;127.058;2024-01-15T04:41:47;99194.22;;;-2.46;85.05
74716;BME280;63234;37.558;127.058;2024-01-15T04:44:12;99184.28;;;-2.42;84.98
74716;BME280;63234;37.558;127.058;2024-01-15T04:46:38;99180.88;;;-2.43;84.96
74716;BME280;63234;37.558;127.058;2024-01-15T04:49:03;99185.41;;;-2.45;85.12
74716;BME280;63234;37.558;127.058;2024-01-15T04:51:29;99180.69;;;-2.41;84.52
74716;BME280;63234;37.558;127.058;2024-01-15T04:53:54;99181.69;;;-2.34;85.07
74716;BME280;63234;37.558;127.058;2024-01-15T04:56:19;99187.72;;;-2.34;84.65
74716;BME280;63234;37.558;127.058;2024-01-15T04:58:45;99174.84;;;-2.35;85.08
74716;BME280;63234;37.558;127.058;2024-01-15T05:01:10;99178.44;;;-2.36;84.80
74716;BME280;63234;37.558;127.058;2024-01-15T05:03:36;99173.06;;;-2.35;84.53
74716;BME280;63234;37.558;127.058;2024-01-15T05:06:01;99168.03;;;-2.36;84.91
74716;BME280;63234;37.558;127.058;2024-01-15T05:08:26;99169.97;;;-2.38;84.62
74716;BME280;63234;37.558;127.058;2024-01-15T05:10:52;99169.16;;;-2.39;84.71
74716;BME280;63234;37.558;127.058;2024-01-15T05:13:17;99161.34;;;-2.39;84.50
74716;BME280;63234;37.558;127.058;2024-01-15T05:15:42;99165.41;;;-2.44;84.96
74716;BME280;63234;37.558;127.058;2024-01-15T05:18:08;99172.56;;;-2.38;84.75
74716;BME280;63234;37.558;127.058;2024-01-15T05:20:33;99169.16;;;-2.39;84.50
74716;BME280;63234;37.558;127.058;2024-01-15T05:22:58;99173.69;;;-2.41;84.07
74716;BME280;63234;37.558;127.058;2024-01-15T05:25:24;99175.50;;;-2.41;84.17
74716;BME280;63234;37.558;127.058;2024-01-15T05:27:49;99168.34;;;-2.39;84.45
74716;BME280;63234;37.558;127.058;2024-01-15T05:30:14;99165.56;;;-2.38;84.18
74716;BME280;63234;37.558;127.058;2024-01-15T05:32:40;99162.66;;;-2.43;84.56
74716;BME280;63234;37.558;127.058;2024-01-15T05:35:05;99151.25;;;-2.42;84.66
74716;BME280;63234;37.558;127.058;2024-01-15T05:37:31;99143.44;;;-2.42;84.41
74716;BME280;63234;37.558;127.058;2024-01-15T05:39:56;99139.03;;;-2.41;84.21
74716;BME280;63234;37.558;127.058;2024-01-15T05:42:21;99143.75;;;-2.45;84.53
74716;BME280;63234;37.558;127.058;2024-01-15T05:44:47;99144.56;;;-2.44;84.37
74716;BME280;63234;37.558;127.058;2024-01-15T05:47:12;99148.16;;;-2.45;84.09
74716;BME280;63234;37.558;127.058;2024-01-15T05:49:37;99145.25;;;-2.42;83.94
74716;BME280;63234;37.558;127.058;2024-01-15T05:52:04;99134.16;;;-2.44;83.85
74716;BME280;63234;37.558;127.058;2024-01-15T05:54:29;99128.97;;;-2.44;83.64
74716;BME280;63234;37.558;127.058;2024-01-15T05:56:54;99123.94;;;-2.46;83.54
74716;BME280;63234;37.558;127.058;2024-01-15T05:59:20;99121.47;;;-2.47;83.70
74716;BME280;63234;37.558;127.058;2024-01-15T06:01:45;99110.44;;;-2.49;83.49
74716;BME280;63234;37.558;127.058;2024-01-15T06:04:10;99102.09;;;-2.53;83.76
74716;BME280;63234;37.558;127.058;2024-01-15T06:06:36;99108.78;;;-2.50;83.45
74716;BME280;63234;37.558;127.058;2024-01-15T06:09:01;99101.94;;;-2.51;83.80
74716;BME280;63234;37.558;127.058;2024-01-15T06:11:31;99105.03;;;-2.48;83.50
74716;BME280;63234;37.558;127.058;2024-01-15T06:13:57;99094.81;;;-2.49;83.32
74716;BME280;63234;37.558;127.058;2024-01-15T06:16:23;99100.00;;;-2.49;83.72
74716;BME280;63234;37.558;127.058;2024-01-15T06:18:48;99097.88;;;-2.46;83.30
74716;BME280;63234;37.558;127.058;2024-01-15T06:21:14;99103.72;;;-2.44;83.15
74716;BME280;63234;37.558;127.058;2024-01-15T06:23:40;99109.94;;;-2.37;82.89
74716;BME280;63234;37.558;127.058;2024-01-15T06:26:05;99112.34;;;-2.35;82.60
74716;BME280;63234;37.558;127.058;2024-01-15T06:28:30;99116.44;;;-2.33;82.87
74716;BME280;63234;37.558;127.058;2024-01-15T06:30:57;99118.88;;;-2.23;82.21
74716;BME280;63234;37.558;127.058;2024-01-15T06:33:23;99120.84;;;-2.25;82.12
74716;BME280;63234;37.558;127.058;2024-01-15T06:35:48;99119.69;;;-2.22;82.06
74716;BME280;63234;37.558;127.058;2024-01-15T06:38:14;99116.59;;;-2.26;82.45
74716;BME280;63234;37.558;127.058;2024-01-15T06:40:40;99105.69;;;-2.21;82.33
74716;BME280;63234;37.558;127.058;2024-01-15T06:43:13;99099.84;;;-2.15;82.04
74716;BME280;63234;37.558;127.058;2024-01-15T06:45:39;99108.78;;;-2.18;81.82
74716;BME280;63234;37.558;127.058;2024-01-15T06:48:05;99108.44;;;-2.15;82.00
74716;BME280;63234;37.558;127.058;2024-01-15T06:50:30;99105.84;;;-2.15;81.94
74716;BME280;63234;37.558;127.058;2024-01-15T06:52:56;99102.25;;;-2.14;81.82
74716;BME280;63234;37.558;127.058;2024-01-15T06:55:21;99100.63;;;-2.06;81.47
74716;BME280;63234;37.558;127.058;2024-01-15T06:57:46;99097.53;;;-2.02;81.11
74716;BME280;63234;37.558;127.058;2024-01-15T07:00:12;99108.75;;;-2.01;81.50
74716;BME280;63234;37.558;127.058;2024-01-15T07:02:38;99108.28;;;-1.97;81.28
74716;BME280;63234;37.558;127.058;2024-01-15T07:05:03;99102.88;;;-1.79;81.00
74716;BME280;63234;37.558;127.058;2024-01-15T07:07:30;99102.34;;;-1.66;80.22
74716;BME280;63234;37.558;127.058;2024-01-15T07:09:55;99110.97;;;-1.74;80.32
74716;BME280;63234;37.558;127.058;2024-01-15T07:12:21;99108.69;;;-1.69;80.24
74716;BME280;63234;37.558;127.058;2024-01-15T07:14:46;99108.75;;;-1.85;81.07
74716;BME280;63234;37.558;127.058;2024-01-15T07:17:11;99109.22;;;-1.81;80.89
74716;BME280;63234;37.558;127.058;2024-01-15T07:19:37;99115.25;;;-1.81;81.41
74716;BME280;63234;37.558;127.058;2024-01-15T07:22:03;99118.69;;;-1.89;81.64
74716;BME280;63234;37.558;127.058;2024-01-15T07:24:28;99121.91;;;-1.87;81.56
74716;BME280;63234;37.558;127.058;2024-01-15T07:26:53;99133.81;;;-1.76;81.30
74716;BME280;63234;37.558;127.058;2024-01-15T07:29:19;99149.13;;;-1.73;80.56
74716;BME280;63234;37.558;127.058;2024-01-15T07:31:49;99148.78;;;-1.86;81.30
74716;BME280;63234;37.558;127.058;2024-01-15T07:34:14;99146.19;;;-1.78;80.72
74716;BME280;63234;37.558;127.058;2024-01-15T07:36:40;99150.91;;;-1.81;80.87
74716;BME280;63234;37.558;127.058;2024-01-15T07:39:05;99149.13;;;-1.81;81.23
74716;BME280;63234;37.558;127.058;2024-01-15T07:41:30;99148.47;;;-1.83;81.44
74716;BME280;63234;37.558;127.058;2024-01-15T07:43:56;99143.25;;;-1.83;81.34
74716;BME280;63234;37.558;127.058;2024-01-15T07:46:21;99146.84;;;-1.84;81.68
74716;BME280;63234;37.558;127.058;2024-01-15T07:48:46;99146.84;;;-1.84;81.68
74716;BME280;63234;37.558;127.058;2024-01-15T07:51:12;99145.03;;;-1.83;82.02
74716;BME280;63234;37.558;127.058;2024-01-15T07:53:37;99139.03;;;-1.84;81.70
74716;BME280;63234;37.558;127.058;2024-01-15T07:56:03;99145.22;;;-1.85;82.09
74716;BME280;63234;37.558;127.058;2024-01-15T07:58:28;99153.00;;;-1.77;81.94
74716;BME280;63234;37.558;127.058;2024-01-15T08:00:53;99156.91;;;-1.65;80.94
74716;BME280;63234;37.558;127.058;2024-01-15T08:03:19;99160.00;;;-1.69;81.63
74716;BME280;63234;37.558;127.058;2024-01-15T08:05:44;99162.44;;;-1.68;82.08
74716;BME280;63234;37.558;127.058;2024-01-15T08:08:09;99161.31;;;-1.65;82.21
74716;BME280;63234;37.558;127.058;2024-01-15T08:10:35;99164.84;;;-1.50;81.77
74716;BME280;63234;37.558;127.058;2024-01-15T08:13:00;99161.47;;;-1.67;81.71
74716;BME280;63234;37.558;127.058;2024-01-15T08:15:25;99148.13;;;-1.72;82.50
74716;BME280;63234;37.558;127.058;2024-01-15T08:17:50;99142.59;;;-1.77;82.62
74716;BME280;63234;37.558;127.058;2024-01-15T08:20:16;99134.28;;;-1.80;82.83
74716;BME280;63234;37.558;127.058;2024-01-15T08:22:41;99146.84;;;-1.76;83.02
74716;BME280;63234;37.558;127.058;2024-01-15T08:25:07;99142.91;;;-1.72;82.99
74716;BME280;63234;37.558;127.058;2024-01-15T08:27:32;99134.75;;;-1.77;83.25
74716;BME280;63234;37.558;127.058;2024-01-15T08:29:57;99135.59;;;-1.76;83.48
74716;BME280;63234;37.558;127.058;2024-01-15T08:32:23;99141.63;;;-1.76;83.76
74716;BME280;63234;37.558;127.058;2024-01-15T08:34:48;99152.06;;;-1.76;83.82
74716;BME280;63234;37.558;127.058;2024-01-15T08:37:17;99156.94;;;-1.73;83.43
74716;BME280;63234;37.558;127.058;2024-01-15T08:39:43;99160.34;;;-1.72;83.71
74716;BME280;63234;37.558;127.058;2024-01-15T08:42:08;99155.59;;;-1.69;83.68
74716;BME280;63234;37.558;127.058;2024-01-15T08:44:33;99146.81;;;-1.68;83.90
74716;BME280;63234;37.558;127.058;2024-01-15T08:46:59;99131.81;;;-1.66;83.74
74716;BME280;63234;37.558;127.058;2024-01-15T08:49:24;99125.63;;;-1.65;83.84
74716;BME280;63234;37.558;127.058;2024-01-15T08:51:49;99119.25;;;-1.62;83.54
74716;BME280;63234;37.558;127.058;2024-01-15T08:54:15;99126.94;;;-1.60;83.87
74716;BME280;63234;37.558;127.058;2024-01-15T08:56:40;99127.22;;;-1.55;83.41
74716;BME280;63234;37.558;127.058;2024-01-15T08:59:06;99115.03;;;-1.55;83.50
74716;BME280;63234;37.558;127.058;2024-01-15T09:01:32;99117.75;;;-1.48;83.95
74716;BME280;63234;37.558;127.058;2024-01-15T09:03:57;99118.22;;;-1.45;83.38
74716;BME280;63234;37.558;127.058;2024-01-15T09:06:23;99115.28;;;-1.42;83.50
74716;BME280;63234;37.558;127.058;2024-01-15T09:08:48;99105.84;;;-1.43;83.18
74716;BME280;63234;37.558;127.058;2024-01-15T09:11:14;99109.75;;;-1.39;83.17
74716;BME280;63234;37.558;127.058;2024-01-15T09:13:39;99095.88;;;-1.39;83.56
74716;BME280;63234;37.558;127.058;2024-01-15T09:16:05;99099.09;;;-1.29;83.33
74716;BME280;63234;37.558;127.058;2024-01-15T09:18:30;99099.09;;;-1.29;83.25
74716;BME280;63234;37.558;127.058;2024-01-15T09:20:55;99093.38;;;-1.24;83.18
74716;BME280;63234;37.558;127.058;2024-01-15T09:23:21;99095.19;;;-1.25;83.38
74716;BME280;63234;37.558;127.058;2024-01-15T09:25:46;99073.13;;;-1.22;82.96
74716;BME280;63234;37.558;127.058;2024-01-15T09:28:13;99078.00;;;-1.19;82.73
74716;BME280;63234;37.558;127.058;2024-01-15T09:30:38;99079.47;;;-1.17;82.46
74716;BME280;63234;37.558;127.058;2024-01-15T09:33:04;99079.94;;;-1.13;82.86
74716;BME280;63234;37.558;127.058;2024-01-15T09:35:30;99084.53;;;-1.15;83.23
74716;BME280;63234;37.558;127.058;2024-01-15T09:37:55;99085.81;;;-1.11;83.14
74716;BME280;63234;37.558;127.058;2024-01-15T09:40:21;99089.34;;;-1.04;82.90
74716;BME280;63234;37.558;127.058;2024-01-15T09:42:47;99094.06;;;-0.99;82.48
74716;BME280;63234;37.558;127.058;2024-01-15T09:45:13;99094.66;;;-0.89;81.98
74716;BME280;63234;37.558;127.058;2024-01-15T09:47:38;99093.84;;;-0.89;81.92
74716;BME280;63234;37.558;127.058;2024-01-15T09:50:05;99085.50;;;-0.85;81.76
74716;BME280;63234;37.558;127.058;2024-01-15T09:52:31;99075.97;;;-0.78;81.31
74716;BME280;63234;37.558;127.058;2024-01-15T09:54:58;99076.28;;;-0.73;80.70
74716;BME280;63234;37.558;127.058;2024-01-15T09:57:24;99071.53;;;-0.69;81.00
74716;BME280;63234;37.558;127.058;2024-01-15T09:59:51;99076.84;;;-0.62;80.34
74716;BME280;63234;37.558;127.058;2024-01-15T10:02:18;99076.34;;;-0.58;79.24
74716;BME280;63234;37.558;127.058;2024-01-15T10:04:44;99078.72;;;-0.48;78.85
74716;BME280;63234;37.558;127.058;2024-01-15T10:07:15;99065.06;;;-0.35;79.08
74716;BME280;63234;37.558;127.058;2024-01-15T10:09:45;99068.75;;;-0.30;77.93
74716;BME280;63234;37.558;127.058;2024-01-15T10:12:11;99068.06;;;-0.24;77.71
74716;BME280;63234;37.558;127.058;2024-01-15T10:14:37;99072.94;;;-0.20;77.73
74716;BME280;63234;37.558;127.058;2024-01-15T10:17:12;99071.66;;;-0.10;77.34
74716;BME280;63234;37.558;127.058;2024-01-15T10:19:38;99068.59;;;-0.13;77.44
74716;BME280;63234;37.558;127.058;2024-01-15T10:22:03;99065.72;;;-0.04;77.00
74716;BME280;63234;37.558;127.058;2024-01-15T10:24:29;99061.13;;;-0.02;77.36
74716;BME280;63234;37.558;127.058;2024-01-15T10:27:05;99055.13;;;0.13;76.57
74716;BME280;63234;37.558;127.058;2024-01-15T10:29:30;99041.50;;;0.17;77.05
74716;BME280;63234;37.558;127.058;2024-01-15T10:31:56;99039.53;;;0.19;76.83
74716;BME280;63234;37.558;127.058;2024-01-15T10:34:22;99053.75;;;0.32;76.61
74716;BME280;63234;37.558;127.058;2024-01-15T10:36:47;99042.38;;;0.39;76.25
74716;BME280;63234;37.558;127.058;2024-01-15T10:39:21;99045.19;;;0.38;77.71
74716;BME280;63234;37.558;127.058;2024-01-15T10:41:47;99056.38;;;0.32;79.24
74716;BME280;63234;37.558;127.058;2024-01-15T10:44:12;99055.50;;;0.25;79.75
74716;BME280;63234;37.558;127.058;2024-01-15T10:46:38;99048.88;;;0.29;80.00
74716;BME280;63234;37.558;127.058;2024-01-15T10:49:06;99052.69;;;0.26;80.51
74716;BME280;63234;37.558;127.058;2024-01-15T10:51:31;99052.03;;;0.24;81.07
74716;BME280;63234;37.558;127.058;2024-01-15T10:53:59;99056.28;;;0.25;80.82
74716;BME280;63234;37.558;127.058;2024-01-15T10:56:25;99051.50;;;0.29;80.81
74716;BME280;63234;37.558;127.058;2024-01-15T10:58:51;99046.00;;;0.23;80.97
74716;BME280;63234;37.558;127.058;2024-01-15T11:01:17;99051.06;;;0.25;82.60
74716;BME280;63234;37.558;127.058;2024-01-15T11:03:45;99051.06;;;0.10;82.92
74716;BME280;63234;37.558;127.058;2024-01-15T11:06:17;99046.56;;;0.19;82.95
74716;BME280;63234;37.558;127.058;2024-01-15T11:08:49;99049.34;;;0.17;82.62
74716;BME280;63234;37.558;127.058;2024-01-15T11:11:17;99047.09;;;0.14;82.56
74716;BME280;63234;37.558;127.058;2024-01-15T11:13:46;99042.50;;;0.16;82.69
74716;BME280;63234;37.558;127.058;2024-01-15T11:16:14;99043.22;;;0.10;83.18
74716;BME280;63234;37.558;127.058;2024-01-15T11:18:41;99040.88;;;0.15;83.11
74716;BME280;63234;37.558;127.058;2024-01-15T11:23:45;99029.88;;;0.20;82.37
74716;BME280;63234;37.558;127.058;2024-01-15T11:26:37;99025.09;;;0.23;81.95
74716;BME280;63234;37.558;127.058;2024-01-15T11:29:05;99027.59;;;0.32;81.92
74716;BME280;63234;37.558;127.058;2024-01-15T11:34:09;99017.06;;;0.40;81.17
74716;BME280;63234;37.558;127.058;2024-01-15T11:42:00;99020.28;;;0.42;80.20
74716;BME280;63234;37.558;127.058;2024-01-15T11:44:27;99026.50;;;0.56;80.13
74716;BME280;63234;37.558;127.058;2024-01-15T11:47:02;99031.28;;;0.52;80.69
74716;BME280;63234;37.558;127.058;2024-01-15T11:52:11;99029.19;;;0.62;80.77
74716;BME280;63234;37.558;127.058;2024-01-15T11:54:44;99040.34;;;0.71;81.06
74716;BME280;63234;37.558;127.058;2024-01-15T11:57:27;99039.91;;;0.67;81.05
74716;BME280;63234;37.558;127.058;2024-01-15T11:59:55;99044.69;;;0.64;80.56
74716;BME280;63234;37.558;127.058;2024-01-15T12:02:21;99046.25;;;0.58;81.37
74716;BME280;63234;37.558;127.058;2024-01-15T12:04:47;99040.19;;;0.58;81.58
74716;BME280;63234;37.558;127.058;2024-01-15T12:07:12;99056.34;;;0.61;81.16
74716;BME280;63234;37.558;127.058;2024-01-15T12:09:43;99045.16;;;0.67;82.78
74716;BME280;63234;37.558;127.058;2024-01-15T12:12:15;99047.72;;;0.46;84.40
74716;BME280;63234;37.558;127.058;2024-01-15T12:14:44;99052.47;;;0.42;85.18
74716;BME280;63234;37.558;127.058;2024-01-15T12:17:10;99051.16;;;0.32;86.11
74716;BME280;63234;37.558;127.058;2024-01-15T12:19:36;99051.06;;;0.25;86.48
74716;BME280;63234;37.558;127.058;2024-01-15T12:22:02;99046.44;;;0.27;87.10
74716;BME280;63234;37.558;127.058;2024-01-15T12:24:27;99046.72;;;0.17;88.10
74716;BME280;63234;37.558;127.058;2024-01-15T12:26:53;99055.13;;;0.13;88.87
74716;BME280;63234;37.558;127.058;2024-01-15T12:29:18;99056.94;;;0.12;88.72
74716;BME280;63234;37.558;127.058;2024-01-15T12:31:47;99057.91;;;0.11;88.18
74716;BME280;63234;37.558;127.058;2024-01-15T12:34:13;99056.56;;;0.15;88.21
74716;BME280;63234;37.558;127.058;2024-01-15T12:36:40;99043.31;;;0.17;89.26
74716;BME280;63234;37.558;127.058;2024-01-15T12:39:05;99061.16;;;0.13;88.93
74716;BME280;63234;37.558;127.058;2024-01-15T12:41:34;99053.22;;;0.07;89.61
74716;BME280;63234;37.558;127.058;2024-01-15T12:44:00;99066.53;;;0.12;89.37
74716;BME280;63234;37.558;127.058;2024-01-15T12:46:25;99064.56;;;0.14;89.81
74716;BME280;63234;37.558;127.058;2024-01-15T12:48:50;99073.06;;;0.16;89.67
74716;BME280;63234;37.558;127.058;2024-01-15T12:51:16;99079.81;;;0.10;90.07